Hohenfelde, Germany

07:19 AM CET am 24. März 2017 (GMT +0100)
Schwedt | | Change Station

Höhe 0 ft 53.09 °N, 14.20 °E | Updated 5 seconds ago

Wolkig
Wolkig
34.2 °F
gefühlte 34 °F
N
1.9
Wind Wechselnd Wind aus West-Südwest
Gusts 4.3 mph

Heute
Max. -- | schwach -- °F
--% Regenrisiko
Gestern
Max. -- | schwach -- °F
Precip. -- inch
Druck 30.36 inch
Sichtweite -9999.0 Meilen
Wolken
Windchill 34 °F
Taupunkt 34 °F
Feuchtigkeit 98%
Regen 0.00 inch
Schneehöhe Nicht verfügbar..
5:55 AM 6:23 PM
Letztes Viertel, 17% visible
METAR EPSC 240600Z 36003KT CAVOK 03/M00 Q1028
Druck 30.36 inch
Sichtweite -9999.0 Meilen
Wolken
Windchill 34 °F
Taupunkt 34 °F
Feuchtigkeit 98%
Regen 0.00 inch
Schneehöhe Nicht verfügbar..
5:55 AM 6:23 PM
Letztes Viertel, 17% visible
METAR EPSC 240600Z 36003KT CAVOK 03/M00 Q1028

Get Severe Weather Alerts

Thanks for signing up!

Be on the lookout for a verification email in your inbox.

You'll start receiving the daily forecast at 8 AM.

×

10-Day Weather Forecast

×

Almanac

Astronomie

Mar. 24, 2017 Aufgang Untergang
Genaue Zeit
Bürgerliche Dämmerung
Nautische Dämmerung
Astronomische Dämmerung
Mond
Länge des sichtbaren Lichts
Tageslänge
Tomorrow will be .
, % of the Moon is Illuminated

Heutige Rekorde

Country Highs Country Lows

Community

WunderPhotos

Upload Photos

1,962,540 Fotos hochgeladen!

WunderBlog® & News

Nearby

Luftqualität

  Luftqualität LQ Index Schadstoff
Not available.

Schneehöhe

Station Depth Höhe

Erdbebenaktivität

Stadt Distance Mag. Time & Date
Minimum magnitude displayed is 2.5.

Erdbebenaktivität

Stadt Distance Mag. Time & Date
Minimum magnitude displayed is 2.5.

küstennahe Wassertemperaturen

Ort Temperatur

Stations

Wetterstationen in der Umgebung

Stationsstandort Temp. Windchill Taupunkt Feuchtigkeit Wind Precip. Höhe Aktualisiert Art